Time;durP1;ratioP1;P1;durP2;ratioP2;P2;SDS_P1;SDS_P2;PMS_P1;PMS_P2;Temp;Humidity;BMP_temperature;BMP_pressure;BME280_temperature;BME280_humidity;BME280_pressure;Samples;Min_cycle;Max_cycle;Signal;HPM_P1;HPM_P2
2022/11/02 00:02:04;;;;;;;11.93;5.40;;;;;;;;;;5089532;28;20024;-76
2022/11/02 00:04:30;;;;;;;14.45;5.97;;;;;;;;;;5081930;28;20369;-76
2022/11/02 00:06:55;;;;;;;13.40;5.22;;;;;;;;;;5091133;28;20070;-76
2022/11/02 00:09:21;;;;;;;13.15;5.30;;;;;;;;;;5091127;28;20359;-76
2022/11/02 00:11:47;;;;;;;13.48;5.07;;;;;;;;;;5091247;28;20104;-76
2022/11/02 00:14:13;;;;;;;12.23;5.43;;;;;;;;;;5086592;28;20682;-76
2022/11/02 00:16:40;;;;;;;11.35;5.45;;;;;;;;;;5083517;28;20028;-76
2022/11/02 00:19:06;;;;;;;11.30;5.40;;;;;;;;;;5087234;28;20469;-76
2022/11/02 00:21:33;;;;;;;12.45;6.18;;;;;;;;;;5081729;28;20170;-76
2022/11/02 00:23:59;;;;;;;14.68;5.43;;;;;;;;;;5084620;28;20040;-76
2022/11/02 00:26:26;;;;;;;10.98;5.43;;;;;;;;;;5079273;28;20056;-76
2022/11/02 00:28:53;;;;;;;12.48;4.75;;;;;;;;;;5080015;28;20037;-76
2022/11/02 00:31:19;;;;;;;7.75;4.68;;;;;;;;;;5071587;28;20033;-76
2022/11/02 00:33:45;;;;;;;9.65;5.25;;;;;;;;;;5079997;28;20016;-76
2022/11/02 00:36:11;;;;;;;11.52;4.15;;;;;;;;;;5080555;28;20078;-76
2022/11/02 00:38:37;;;;;;;9.60;4.50;;;;;;;;;;5071451;28;20112;-76
2022/11/02 00:41:03;;;;;;;11.82;4.82;;;;;;;;;;5079705;28;20107;-76
2022/11/02 00:43:29;;;;;;;12.73;4.68;;;;;;;;;;5090962;28;20043;-76
2022/11/02 00:45:55;;;;;;;11.05;4.85;;;;;;;;;;5083313;28;20040;-76
2022/11/02 00:48:21;;;;;;;10.70;4.18;;;;;;;;;;5086760;28;20043;-76
2022/11/02 00:50:47;;;;;;;9.52;4.47;;;;;;;;;;5092125;28;20108;-76
2022/11/02 00:53:13;;;;;;;10.30;4.53;;;;;;;;;;5083484;28;20107;-76
2022/11/02 00:55:39;;;;;;;11.77;4.50;;;;;;;;;;5072562;28;20115;-76
2022/11/02 00:58:05;;;;;;;9.23;5.03;;;;;;;;;;5085266;28;20024;-76
2022/11/02 01:00:31;;;;;;;8.05;3.15;;;;;;;;;;5078632;28;20400;-76
2022/11/02 01:03:01;;;;;;;7.45;3.30;;;;;;;;;;5073805;28;20052;-76
2022/11/02 01:05:27;;;;;;;10.48;4.15;;;;;;;;;;5091452;28;20058;-76
2022/11/02 01:07:53;;;;;;;11.88;3.08;;;;;;;;;;5095040;28;20449;-76
2022/11/02 01:10:19;;;;;;;8.88;4.07;;;;;;;;;;5097843;28;20032;-76
2022/11/02 01:12:45;;;;;;;9.20;4.35;;;;;;;;;;5080731;28;20512;-76
2022/11/02 01:15:11;;;;;;;14.27;5.53;;;;;;;;;;5092103;28;20056;-76
2022/11/02 01:17:37;;;;;;;15.88;4.82;;;;;;;;;;5090497;28;20028;-76
2022/11/02 01:20:04;;;;;;;9.98;5.28;;;;;;;;;;5089274;28;20044;-76
2022/11/02 01:22:30;;;;;;;9.48;3.70;;;;;;;;;;5085076;28;20028;-76
2022/11/02 01:24:56;;;;;;;10.48;4.22;;;;;;;;;;5089677;28;20101;-76
2022/11/02 01:27:22;;;;;;;8.57;3.83;;;;;;;;;;5094528;28;20024;-76
2022/11/02 01:29:48;;;;;;;12.95;4.65;;;;;;;;;;5085012;28;20381;-76
2022/11/02 01:32:14;;;;;;;9.38;3.95;;;;;;;;;;5092964;28;20027;-76
2022/11/02 01:34:40;;;;;;;14.82;5.05;;;;;;;;;;5080655;28;20050;-76
2022/11/02 01:37:06;;;;;;;8.38;4.22;;;;;;;;;;5088822;28;20020;-76
2022/11/02 01:39:32;;;;;;;7.40;4.07;;;;;;;;;;5082064;28;20616;-76
2022/11/02 01:41:58;;;;;;;8.68;3.85;;;;;;;;;;5074024;28;20028;-76
2022/11/02 01:44:32;;;;;;;8.48;3.28;;;;;;;;;;5073944;28;20056;-76
2022/11/02 01:47:08;;;;;;;11.32;3.45;;;;;;;;;;5076731;28;20404;-76
2022/11/02 01:49:36;;;;;;;9.07;4.22;;;;;;;;;;5085691;28;20367;-77
2022/11/02 01:52:06;;;;;;;9.63;3.78;;;;;;;;;;5086662;28;20117;-76
2022/11/02 01:54:36;;;;;;;9.68;3.10;;;;;;;;;;5093476;28;20377;-76
2022/11/02 01:57:07;;;;;;;12.55;3.10;;;;;;;;;;5089721;28;20058;-76
2022/11/02 01:59:36;;;;;;;9.57;2.88;;;;;;;;;;5073052;28;20020;-76
2022/11/02 02:02:04;;;;;;;8.55;3.35;;;;;;;;;;5072615;28;20035;-76
2022/11/02 02:04:31;;;;;;;13.80;4.05;;;;;;;;;;5082088;28;20737;-76
2022/11/02 02:06:58;;;;;;;10.57;4.20;;;;;;;;;;5093035;28;20453;-77
2022/11/02 02:09:25;;;;;;;9.32;3.60;;;;;;;;;;5091844;28;20031;-76
2022/11/02 02:11:50;;;;;;;13.18;3.78;;;;;;;;;;5086327;28;20422;-76
2022/11/02 02:14:17;;;;;;;13.10;4.85;;;;;;;;;;5081678;28;20048;-76
2022/11/02 02:16:53;;;;;;;12.93;4.60;;;;;;;;;;5081416;28;20040;-76
2022/11/02 02:19:25;;;;;;;12.63;4.28;;;;;;;;;;5081508;28;20024;-76
2022/11/02 02:21:51;;;;;;;;;;;;;;;;;;5090694;28;20040;-76
2022/11/02 02:24:22;;;;;;;9.35;4.93;;;;;;;;;;5078373;28;19923;-76
2022/11/02 02:26:51;;;;;;;11.05;4.13;;;;;;;;;;5072121;28;20062;-76
2022/11/02 02:29:22;;;;;;;14.18;4.05;;;;;;;;;;5088399;28;20051;-76
2022/11/02 02:32:12;;;;;;;8.38;3.67;;;;;;;;;;5083809;28;20446;-76
2022/11/02 02:34:41;;;;;;;9.63;4.00;;;;;;;;;;5080043;28;20036;-76
2022/11/02 02:37:09;;;;;;;11.05;4.60;;;;;;;;;;5072361;28;20029;-76
2022/11/02 02:39:44;;;;;;;10.55;4.47;;;;;;;;;;5081124;28;20043;-76
2022/11/02 02:42:17;;;;;;;10.15;4.82;;;;;;;;;;5078376;28;20028;-76
2022/11/02 02:44:46;;;;;;;10.13;4.10;;;;;;;;;;5084383;28;20036;-76
2022/11/02 02:47:13;;;;;;;10.13;3.65;;;;;;;;;;5071795;28;20050;-76
2022/11/02 02:49:48;;;;;;;9.05;3.90;;;;;;;;;;5084880;28;20101;-76
2022/11/02 02:52:15;;;;;;;9.70;4.57;;;;;;;;;;5091965;28;20032;-76
2022/11/02 02:54:43;;;;;;;12.75;3.72;;;;;;;;;;5083336;28;20051;-76
2022/11/02 02:57:11;;;;;;;11.20;5.07;;;;;;;;;;5072572;28;20044;-76
2022/11/02 02:59:42;;;;;;;10.68;4.47;;;;;;;;;;5080013;28;20024;-76
2022/11/02 03:02:11;;;;;;;12.45;4.20;;;;;;;;;;5072641;28;20036;-76
2022/11/02 03:04:37;;;;;;;11.90;4.40;;;;;;;;;;5087297;28;20077;-76
2022/11/02 03:07:03;;;;;;;9.13;4.35;;;;;;;;;;5081906;28;20032;-76
2022/11/02 03:09:29;;;;;;;10.57;4.50;;;;;;;;;;5085925;28;20731;-76
2022/11/02 03:11:59;;;;;;;9.05;4.05;;;;;;;;;;5083619;28;20028;-76
2022/11/02 03:14:33;;;;;;;9.32;4.30;;;;;;;;;;5081687;28;20031;-76
2022/11/02 03:17:15;;;;;;;9.32;4.32;;;;;;;;;;5092311;28;20500;-76
2022/11/02 03:19:41;;;;;;;12.98;4.38;;;;;;;;;;5092176;28;20016;-76
2022/11/02 03:22:14;;;;;;;11.18;4.07;;;;;;;;;;5092544;28;20412;-76
2022/11/02 03:24:49;;;;;;;10.23;4.63;;;;;;;;;;5089798;28;20108;-76
2022/11/02 03:27:19;;;;;;;13.10;4.40;;;;;;;;;;5091957;28;20024;-76
2022/11/02 03:29:54;;;;;;;10.95;3.35;;;;;;;;;;5081062;28;20029;-76
2022/11/02 03:32:24;;;;;;;10.02;3.28;;;;;;;;;;5080776;28;20066;-76
2022/11/02 03:34:56;;;;;;;13.18;3.22;;;;;;;;;;5072244;28;20448;-76
2022/11/02 03:37:26;;;;;;;10.73;3.03;;;;;;;;;;5092545;28;20102;-76
2022/11/02 03:39:54;;;;;;;8.10;3.38;;;;;;;;;;5083683;28;20062;-76
2022/11/02 03:42:22;;;;;;;8.40;3.58;;;;;;;;;;5088163;28;20028;-76
2022/11/02 03:44:50;;;;;;;10.82;3.50;;;;;;;;;;5086438;28;20640;-76
2022/11/02 03:47:18;;;;;;;7.68;3.30;;;;;;;;;;5084996;28;20025;-76
2022/11/02 03:49:45;;;;;;;10.02;3.13;;;;;;;;;;5074869;28;20035;-76
2022/11/02 03:52:16;;;;;;;13.75;3.95;;;;;;;;;;5092065;28;20024;-76
2022/11/02 03:54:45;;;;;;;9.15;3.97;;;;;;;;;;5092408;28;20023;-77
2022/11/02 03:57:15;;;;;;;9.95;3.63;;;;;;;;;;5091718;28;20020;-76
2022/11/02 03:59:41;;;;;;;8.32;4.07;;;;;;;;;;5071563;28;20044;-76
2022/11/02 04:02:09;;;;;;;8.95;3.80;;;;;;;;;;5090053;28;20032;-76
2022/11/02 04:04:35;;;;;;;8.82;4.32;;;;;;;;;;5092332;28;20039;-76
2022/11/02 04:07:01;;;;;;;8.13;3.40;;;;;;;;;;5082800;28;20027;-76
2022/11/02 04:09:27;;;;;;;9.95;4.43;;;;;;;;;;5074174;28;20035;-76
2022/11/02 04:14:38;;;;;;;9.82;3.40;;;;;;;;;;5088186;28;20031;-76
2022/11/02 04:19:49;;;;;;;8.75;3.97;;;;;;;;;;5078523;28;20055;-76
2022/11/02 04:25:19;;;;;;;8.88;3.10;;;;;;;;;;5078571;28;20055;-76
2022/11/02 04:27:49;;;;;;;7.65;3.00;;;;;;;;;;5072536;28;20032;-76
2022/11/02 04:30:16;;;;;;;8.63;3.80;;;;;;;;;;5072583;28;20358;-76
2022/11/02 04:35:28;;;;;;;10.40;4.03;;;;;;;;;;5082425;28;20039;-76
2022/11/02 04:40:38;;;;;;;11.45;5.07;;;;;;;;;;5084995;28;20043;-76
2022/11/02 04:43:04;;;;;;;10.93;4.47;;;;;;;;;;5075226;28;20024;-76
2022/11/02 04:45:30;;;;;;;10.13;5.13;;;;;;;;;;5076081;28;20456;-76
2022/11/02 04:48:00;;;;;;;9.95;5.40;;;;;;;;;;5082077;28;20032;-77
2022/11/02 04:50:26;;;;;;;11.20;5.57;;;;;;;;;;5091723;28;20735;-76
2022/11/02 04:52:59;;;;;;;15.60;5.50;;;;;;;;;;5075225;28;20206;-76
2022/11/02 04:55:26;;;;;;;11.20;4.63;;;;;;;;;;5094400;28;20028;-76
2022/11/02 04:57:52;;;;;;;11.15;5.65;;;;;;;;;;5075468;28;20035;-76
2022/11/02 05:00:18;;;;;;;13.15;4.85;;;;;;;;;;5095715;28;20028;-76
2022/11/02 05:02:46;;;;;;;11.30;5.30;;;;;;;;;;5082058;28;20038;-76
2022/11/02 05:05:12;;;;;;;11.90;4.93;;;;;;;;;;5077682;28;20039;-76
2022/11/02 05:07:38;;;;;;;7.80;4.03;;;;;;;;;;5086292;28;20055;-76
2022/11/02 05:10:04;;;;;;;8.23;3.88;;;;;;;;;;5093458;28;20468;-76
2022/11/02 05:12:30;;;;;;;12.38;5.20;;;;;;;;;;5094693;28;20416;-76
2022/11/02 05:14:56;;;;;;;13.82;4.93;;;;;;;;;;5095042;28;20141;-76
2022/11/02 05:17:22;;;;;;;11.48;5.10;;;;;;;;;;5075389;28;20210;-76
2022/11/02 05:19:48;;;;;;;13.38;5.03;;;;;;;;;;5088150;28;20077;-76
2022/11/02 05:22:14;;;;;;;11.68;4.85;;;;;;;;;;5094639;28;20028;-76
2022/11/02 05:24:40;;;;;;;13.80;4.68;;;;;;;;;;5094613;28;20114;-76
2022/11/02 05:27:06;;;;;;;15.68;6.47;;;;;;;;;;5094765;28;20448;-76
2022/11/02 05:29:32;;;;;;;11.82;6.07;;;;;;;;;;5091311;28;20229;-76
2022/11/02 05:31:58;;;;;;;11.10;5.32;;;;;;;;;;5082336;28;20040;-76
2022/11/02 05:34:25;;;;;;;12.20;6.28;;;;;;;;;;5076400;28;20021;-76
2022/11/02 05:36:51;;;;;;;13.05;5.30;;;;;;;;;;5091807;28;20038;-76
2022/11/02 05:39:17;;;;;;;14.95;5.10;;;;;;;;;;5086718;28;20020;-76
2022/11/02 05:41:43;;;;;;;11.48;4.60;;;;;;;;;;5077494;28;20115;-76
2022/11/02 05:44:09;;;;;;;13.13;5.30;;;;;;;;;;5082646;28;20032;-76
2022/11/02 05:46:35;;;;;;;15.32;6.32;;;;;;;;;;5074909;28;20073;-76
2022/11/02 05:49:01;;;;;;;17.48;6.38;;;;;;;;;;5087531;28;20102;-76
2022/11/02 05:51:27;;;;;;;14.02;5.75;;;;;;;;;;5085032;28;20377;-76
2022/11/02 05:53:53;;;;;;;16.40;6.50;;;;;;;;;;5092156;28;20039;-76
2022/11/02 05:56:19;;;;;;;14.60;7.45;;;;;;;;;;5081134;28;20520;-76
2022/11/02 05:58:45;;;;;;;13.50;7.78;;;;;;;;;;5088916;28;20028;-76
2022/11/02 06:01:11;;;;;;;21.48;8.40;;;;;;;;;;5090626;28;20036;-76
2022/11/02 06:03:37;;;;;;;16.27;8.55;;;;;;;;;;5083903;28;20078;-77
2022/11/02 06:06:05;;;;;;;12.10;7.28;;;;;;;;;;5080658;28;20048;-76
2022/11/02 06:08:32;;;;;;;13.02;6.72;;;;;;;;;;5081294;28;20028;-76
2022/11/02 06:10:58;;;;;;;12.52;6.95;;;;;;;;;;5089416;28;20040;-76
2022/11/02 06:13:24;;;;;;;12.45;6.47;;;;;;;;;;5073311;28;20025;-76
2022/11/02 06:15:50;;;;;;;16.23;6.85;;;;;;;;;;5086409;28;20070;-76
2022/11/02 06:18:16;;;;;;;18.13;9.95;;;;;;;;;;5082693;28;20098;-76
2022/11/02 06:20:42;;;;;;;17.83;10.93;;;;;;;;;;5090013;28;20484;-76
2022/11/02 06:23:08;;;;;;;19.33;13.20;;;;;;;;;;5086945;28;20035;-76
2022/11/02 06:25:34;;;;;;;21.73;14.27;;;;;;;;;;5101254;28;20052;-76
2022/11/02 06:28:00;;;;;;;18.52;12.52;;;;;;;;;;5093498;28;20484;-76
2022/11/02 06:30:26;;;;;;;16.67;12.82;;;;;;;;;;5098255;28;20034;-76
2022/11/02 06:32:53;;;;;;;29.45;18.05;;;;;;;;;;5101889;28;20130;-76
2022/11/02 06:35:20;;;;;;;29.05;19.35;;;;;;;;;;5094184;28;20115;-76
2022/11/02 06:37:46;;;;;;;28.20;14.82;;;;;;;;;;5094252;28;20048;-76
2022/11/02 06:40:13;;;;;;;23.13;10.10;;;;;;;;;;5082017;28;20291;-76
2022/11/02 06:42:39;;;;;;;15.23;8.65;;;;;;;;;;5092946;28;20054;-76
2022/11/02 06:45:06;;;;;;;15.90;6.70;;;;;;;;;;5087313;28;20136;-76
2022/11/02 06:47:33;;;;;;;12.48;6.50;;;;;;;;;;5096581;28;20024;-76
2022/11/02 06:49:59;;;;;;;12.23;5.90;;;;;;;;;;5088567;28;20108;-76
2022/11/02 06:52:29;;;;;;;13.82;6.00;;;;;;;;;;5093159;28;20465;-76
2022/11/02 06:54:55;;;;;;;17.95;5.40;;;;;;;;;;5082140;28;20039;-76
2022/11/02 06:57:21;;;;;;;14.05;5.28;;;;;;;;;;5085600;28;20038;-76
2022/11/02 06:59:47;;;;;;;16.50;5.30;;;;;;;;;;5079224;28;20024;-76
2022/11/02 07:02:13;;;;;;;11.35;4.32;;;;;;;;;;5092514;28;20020;-77
2022/11/02 07:04:39;;;;;;;11.07;4.45;;;;;;;;;;5079468;28;20055;-76
2022/11/02 07:07:05;;;;;;;9.23;4.03;;;;;;;;;;5085602;28;20473;-76
2022/11/02 07:09:31;;;;;;;15.95;5.05;;;;;;;;;;5085265;28;20023;-76
2022/11/02 07:11:57;;;;;;;9.52;4.18;;;;;;;;;;5086999;28;20025;-76
2022/11/02 07:14:23;;;;;;;15.13;5.05;;;;;;;;;;5092541;28;20042;-76
2022/11/02 07:16:49;;;;;;;15.18;6.97;;;;;;;;;;5089309;28;20108;-76
2022/11/02 07:19:16;;;;;;;16.33;7.20;;;;;;;;;;5084349;28;20470;-76
2022/11/02 07:21:41;;;;;;;16.70;7.25;;;;;;;;;;5089139;28;20028;-76
2022/11/02 07:24:08;;;;;;;19.15;6.43;;;;;;;;;;5099709;28;20101;-76
2022/11/02 07:26:34;;;;;;;15.98;7.65;;;;;;;;;;5085589;28;20098;-76
2022/11/02 07:29:00;;;;;;;21.00;7.55;;;;;;;;;;5083585;28;20068;-76
2022/11/02 07:31:27;;;;;;;15.13;6.90;;;;;;;;;;5076690;28;20090;-76
2022/11/02 07:33:53;;;;;;;13.75;5.18;;;;;;;;;;5094252;28;20408;-76
2022/11/02 07:36:19;;;;;;;12.05;5.22;;;;;;;;;;5085381;28;20032;-76
2022/11/02 07:38:45;;;;;;;11.18;4.55;;;;;;;;;;5099153;28;20020;-76
2022/11/02 07:41:11;;;;;;;14.88;5.88;;;;;;;;;;5099417;28;20032;-76
2022/11/02 07:43:37;;;;;;;12.55;5.45;;;;;;;;;;5092424;28;20351;-76
2022/11/02 07:46:04;;;;;;;19.52;6.13;;;;;;;;;;5088805;28;20470;-76
2022/11/02 07:48:30;;;;;;;15.27;6.50;;;;;;;;;;5087031;28;20070;-76
2022/11/02 07:50:58;;;;;;;13.18;5.72;;;;;;;;;;5102419;28;20111;-76
2022/11/02 07:53:24;;;;;;;16.23;5.93;;;;;;;;;;5094098;28;20023;-76
2022/11/02 07:55:50;;;;;;;18.17;5.60;;;;;;;;;;5103171;28;20381;-76
2022/11/02 07:58:16;;;;;;;12.63;5.03;;;;;;;;;;5098126;28;20028;-76
2022/11/02 08:00:42;;;;;;;17.05;5.80;;;;;;;;;;5090433;28;20059;-76
2022/11/02 08:03:09;;;;;;;13.82;5.30;;;;;;;;;;5079046;28;20024;-76
2022/11/02 08:05:36;;;;;;;15.35;6.78;;;;;;;;;;5081961;28;20067;-76
2022/11/02 08:08:28;;;;;;;14.10;6.32;;;;;;;;;;5097321;28;20028;-76
2022/11/02 08:10:54;;;;;;;12.13;5.78;;;;;;;;;;5098755;28;20048;-76
2022/11/02 08:13:21;;;;;;;12.25;6.95;;;;;;;;;;5083489;28;20062;-76
2022/11/02 08:15:54;;;;;;;16.90;6.18;;;;;;;;;;5088682;28;20467;-76
2022/11/02 08:18:20;;;;;;;;;;;;;;;;;;5096366;28;20023;-76
2022/11/02 08:20:46;;;;;;;13.30;5.55;;;;;;;;;;5109059;28;19915;-76
2022/11/02 08:23:13;;;;;;;14.68;5.90;;;;;;;;;;5093462;28;20028;-76
2022/11/02 08:25:39;;;;;;;15.10;5.80;;;;;;;;;;5078697;28;20052;-76
2022/11/02 08:28:06;;;;;;;15.00;6.00;;;;;;;;;;5111065;28;20028;-76
2022/11/02 08:30:32;;;;;;;16.63;8.15;;;;;;;;;;5102205;28;20036;-76
2022/11/02 08:33:03;;;;;;;12.40;6.13;;;;;;;;;;5093764;28;20028;-76
2022/11/02 08:35:29;;;;;;;15.20;8.50;;;;;;;;;;5101358;28;20116;-76
2022/11/02 08:37:55;;;;;;;15.82;8.50;;;;;;;;;;5092972;28;20031;-76
2022/11/02 08:40:21;;;;;;;18.45;6.50;;;;;;;;;;5106734;28;20031;-76
2022/11/02 08:42:47;;;;;;;13.02;6.07;;;;;;;;;;5090696;28;20089;-76
2022/11/02 08:45:13;;;;;;;18.48;7.13;;;;;;;;;;5088779;28;20052;-77
2022/11/02 08:47:40;;;;;;;15.73;7.20;;;;;;;;;;5086528;28;20032;-77
2022/11/02 08:50:06;;;;;;;15.75;7.28;;;;;;;;;;5093289;28;20385;-76
2022/11/02 08:52:36;;;;;;;14.18;5.95;;;;;;;;;;5084158;28;20025;-76
2022/11/02 08:55:02;;;;;;;13.18;6.25;;;;;;;;;;5086754;28;20615;-77
2022/11/02 08:57:28;;;;;;;13.93;6.32;;;;;;;;;;5091477;28;20066;-76
2022/11/02 08:59:54;;;;;;;17.63;5.68;;;;;;;;;;5091728;28;20044;-76
2022/11/02 09:02:20;;;;;;;9.68;4.93;;;;;;;;;;5082140;28;20378;-77
2022/11/02 09:04:46;;;;;;;11.48;4.00;;;;;;;;;;5086553;28;20036;-76
2022/11/02 09:07:12;;;;;;;12.32;5.13;;;;;;;;;;5083153;28;20021;-76
2022/11/02 09:09:38;;;;;;;18.33;4.60;;;;;;;;;;5095211;28;20069;-77
2022/11/02 09:12:05;;;;;;;17.55;5.93;;;;;;;;;;5083330;28;20374;-76
2022/11/02 09:14:31;;;;;;;12.20;4.13;;;;;;;;;;5087778;28;20016;-76
2022/11/02 09:16:57;;;;;;;12.70;3.97;;;;;;;;;;5094595;28;20035;-77
2022/11/02 09:19:23;;;;;;;13.27;4.18;;;;;;;;;;5099761;28;20369;-76
2022/11/02 09:21:50;;;;;;;11.63;4.50;;;;;;;;;;5079386;28;20071;-76
2022/11/02 09:24:16;;;;;;;14.75;4.90;;;;;;;;;;5080934;28;20028;-76
2022/11/02 09:26:42;;;;;;;12.25;3.80;;;;;;;;;;5088505;28;20056;-76
2022/11/02 09:29:08;;;;;;;12.02;5.07;;;;;;;;;;5092917;28;20146;-77
2022/11/02 09:31:34;;;;;;;11.07;4.55;;;;;;;;;;5081281;28;20021;-76
2022/11/02 09:34:00;;;;;;;14.35;5.10;;;;;;;;;;5082785;28;20032;-76
2022/11/02 09:36:26;;;;;;;17.05;5.20;;;;;;;;;;5091908;28;20347;-76
2022/11/02 09:38:52;;;;;;;15.10;3.70;;;;;;;;;;5092867;28;20119;-77
2022/11/02 09:41:31;;;;;;;11.65;3.88;;;;;;;;;;5101371;28;20476;-76
2022/11/02 09:44:00;;;;;;;10.70;3.97;;;;;;;;;;5087561;28;20032;-76
2022/11/02 09:46:29;;;;;;;12.32;3.72;;;;;;;;;;5101682;28;20715;-76
2022/11/02 09:49:00;;;;;;;12.63;4.65;;;;;;;;;;5079959;28;20431;-76
2022/11/02 09:51:37;;;;;;;15.05;4.78;;;;;;;;;;5101731;28;20032;-76
2022/11/02 09:54:18;;;;;;;13.30;3.47;;;;;;;;;;5093014;28;20036;-76
2022/11/02 09:56:45;;;;;;;6.18;2.60;;;;;;;;;;5084481;28;20024;-76
2022/11/02 09:59:14;;;;;;;11.90;2.50;;;;;;;;;;5088218;28;20028;-76
2022/11/02 10:01:47;;;;;;;8.05;1.77;;;;;;;;;;5090187;28;20135;-77
2022/11/02 10:04:32;;;;;;;7.95;2.67;;;;;;;;;;5082006;28;20028;-77
2022/11/02 10:07:03;;;;;;;11.38;3.30;;;;;;;;;;5079094;28;20041;-77
2022/11/02 10:09:45;;;;;;;11.40;2.65;;;;;;;;;;5078662;28;20488;-77
2022/11/02 10:12:13;;;;;;;10.50;2.90;;;;;;;;;;5083459;28;20035;-76
2022/11/02 10:14:45;;;;;;;11.00;2.83;;;;;;;;;;5090439;28;20035;-77
2022/11/02 10:17:13;;;;;;;14.55;4.20;;;;;;;;;;5093194;28;20480;-77
2022/11/02 10:19:41;;;;;;;14.93;4.07;;;;;;;;;;5088574;28;20036;-77
2022/11/02 10:22:09;;;;;;;13.07;4.07;;;;;;;;;;5084598;28;20365;-76
2022/11/02 10:24:42;;;;;;;16.75;4.45;;;;;;;;;;5091203;28;20032;-77
2022/11/02 10:27:07;;;;;;;;;;;;;;;;;;5100176;28;20423;-76
2022/11/02 10:29:42;;;;;;;20.08;3.90;;;;;;;;;;5091569;28;19919;-76
2022/11/02 10:32:11;;;;;;;12.15;3.38;;;;;;;;;;5082236;28;20497;-77
2022/11/02 10:34:38;;;;;;;13.40;3.80;;;;;;;;;;5085735;28;20024;-77
2022/11/02 10:37:15;;;;;;;14.85;3.53;;;;;;;;;;5078971;28;20032;-77
2022/11/02 10:39:47;;;;;;;13.95;4.47;;;;;;;;;;5079475;28;20470;-76
2022/11/02 10:42:13;;;;;;;9.70;2.70;;;;;;;;;;5090619;28;20040;-77
2022/11/02 10:44:45;;;;;;;13.77;3.17;;;;;;;;;;5089348;28;20108;-77
2022/11/02 10:47:34;;;;;;;10.30;2.38;;;;;;;;;;5084590;28;20480;-77
2022/11/02 10:50:23;;;;;;;11.05;2.50;;;;;;;;;;5066822;28;20471;-77
2022/11/02 10:52:49;;;;;;;10.68;2.25;;;;;;;;;;5078385;28;20048;-77
2022/11/02 10:55:20;;;;;;;11.00;2.50;;;;;;;;;;5076546;28;20032;-77
2022/11/02 10:57:47;;;;;;;7.10;2.25;;;;;;;;;;5081736;28;20031;-77
2022/11/02 11:00:23;;;;;;;7.65;2.45;;;;;;;;;;5087772;28;20075;-77
2022/11/02 11:03:06;;;;;;;11.25;2.58;;;;;;;;;;5095224;28;20031;-77
2022/11/02 11:05:33;;;;;;;9.60;2.03;;;;;;;;;;5078559;28;20534;-76
2022/11/02 11:08:00;;;;;;;14.65;2.30;;;;;;;;;;5082274;28;20043;-77
2022/11/02 11:10:26;;;;;;;7.88;1.83;;;;;;;;;;5082113;28;20075;-77
2022/11/02 11:12:54;;;;;;;11.75;2.53;;;;;;;;;;5090985;28;20035;-77
2022/11/02 11:15:25;;;;;;;8.10;2.22;;;;;;;;;;5087604;28;20036;-77
2022/11/02 11:17:51;;;;;;;9.43;2.38;;;;;;;;;;5083696;28;20032;-77
2022/11/02 11:20:33;;;;;;;10.98;2.35;;;;;;;;;;5090894;28;20042;-77
2022/11/02 11:23:09;;;;;;;14.27;2.45;;;;;;;;;;5081025;28;20063;-77
2022/11/02 11:25:35;;;;;;;10.18;2.60;;;;;;;;;;5079153;28;20139;-77
2022/11/02 11:28:01;;;;;;;11.68;3.78;;;;;;;;;;5087325;28;20111;-77
2022/11/02 11:30:34;;;;;;;10.25;3.15;;;;;;;;;;5093209;28;20050;-77
2022/11/02 11:33:01;;;;;;;13.65;2.25;;;;;;;;;;5089310;28;20020;-77
2022/11/02 11:35:38;;;;;;;6.50;1.65;;;;;;;;;;5088416;28;20028;-77
2022/11/02 11:38:07;;;;;;;10.23;1.83;;;;;;;;;;5084135;28;20073;-77
2022/11/02 11:40:35;;;;;;;10.48;2.00;;;;;;;;;;5092106;28;20036;-77
2022/11/02 11:43:02;;;;;;;9.77;2.00;;;;;;;;;;5089724;28;20035;-77
2022/11/02 11:45:32;;;;;;;10.90;2.60;;;;;;;;;;5081766;28;20056;-77
2022/11/02 11:48:17;;;;;;;11.23;1.90;;;;;;;;;;5090711;28;20040;-77
2022/11/02 11:50:47;;;;;;;8.38;1.70;;;;;;;;;;5081347;28;20479;-77
2022/11/02 11:53:13;;;;;;;7.97;1.67;;;;;;;;;;5082843;28;20035;-77
2022/11/02 11:55:49;;;;;;;6.15;1.55;;;;;;;;;;5095072;28;20028;-77
2022/11/02 11:58:27;;;;;;;5.53;1.15;;;;;;;;;;5082845;28;20028;-77
2022/11/02 12:01:02;;;;;;;10.90;1.50;;;;;;;;;;5095367;28;20783;-77
2022/11/02 12:03:28;;;;;;;7.90;1.40;;;;;;;;;;5083188;28;20039;-78
2022/11/02 12:06:03;;;;;;;6.93;1.00;;;;;;;;;;5080189;28;20028;-77
2022/11/02 12:08:32;;;;;;;11.15;1.67;;;;;;;;;;5083223;28;20097;-77
2022/11/02 12:10:58;;;;;;;7.28;1.52;;;;;;;;;;5089898;28;20042;-77
2022/11/02 12:13:30;;;;;;;8.73;2.00;;;;;;;;;;5095442;28;20024;-77
2022/11/02 12:16:02;;;;;;;6.88;1.38;;;;;;;;;;5078797;28;20400;-77
2022/11/02 12:18:35;;;;;;;7.50;1.50;;;;;;;;;;5088981;28;20036;-77
2022/11/02 12:21:07;;;;;;;10.32;1.60;;;;;;;;;;5075982;28;20873;-77
2022/11/02 12:23:33;;;;;;;;;;;;;;;;;;5080010;28;20032;-77
2022/11/02 12:26:18;;;;;;;7.07;1.10;;;;;;;;;;5085905;28;19935;-77
2022/11/02 12:28:56;;;;;;;7.03;1.13;;;;;;;;;;5080227;28;20130;-77
2022/11/02 12:31:22;;;;;;;5.68;1.05;;;;;;;;;;5074075;28;20390;-77
2022/11/02 12:33:47;;;;;;;5.82;1.15;;;;;;;;;;5084199;28;20063;-77
2022/11/02 12:36:31;;;;;;;7.25;1.20;;;;;;;;;;5096300;28;20423;-77
2022/11/02 12:39:19;;;;;;;8.75;0.98;;;;;;;;;;5079247;28;20516;-77
2022/11/02 12:41:51;;;;;;;9.05;1.38;;;;;;;;;;5084354;28;20063;-77
2022/11/02 12:44:20;;;;;;;9.48;1.23;;;;;;;;;;5088784;28;20042;-77
2022/11/02 12:46:53;;;;;;;6.30;1.10;;;;;;;;;;5086186;28;20405;-77
2022/11/02 12:49:38;;;;;;;5.38;1.15;;;;;;;;;;5076707;28;20028;-77
2022/11/02 12:52:12;;;;;;;6.00;1.70;;;;;;;;;;5079056;28;20044;-77
2022/11/02 12:54:43;;;;;;;10.45;1.98;;;;;;;;;;5093693;28;20016;-77
2022/11/02 12:57:15;;;;;;;8.00;1.40;;;;;;;;;;5083427;28;20090;-78
2022/11/02 12:59:43;;;;;;;7.23;0.90;;;;;;;;;;5077751;28;20029;-77
2022/11/02 13:02:09;;;;;;;6.88;1.52;;;;;;;;;;5085199;28;20251;-77
2022/11/02 13:04:53;;;;;;;7.28;1.38;;;;;;;;;;5092906;28;20380;-77
2022/11/02 13:07:27;;;;;;;6.95;1.45;;;;;;;;;;5078524;28;20059;-77
2022/11/02 13:09:55;;;;;;;8.05;1.50;;;;;;;;;;5093942;28;20036;-77
2022/11/02 13:12:23;;;;;;;7.78;2.55;;;;;;;;;;5077749;28;20139;-77
2022/11/02 13:14:50;;;;;;;12.52;2.92;;;;;;;;;;5086933;28;20483;-77
2022/11/02 13:17:19;;;;;;;12.52;2.60;;;;;;;;;;5090617;28;20024;-77
2022/11/02 13:19:51;;;;;;;10.88;3.22;;;;;;;;;;5089045;28;20032;-77
2022/11/02 13:22:19;;;;;;;9.73;3.63;;;;;;;;;;5090607;28;20748;-77
2022/11/02 13:24:47;;;;;;;11.43;4.22;;;;;;;;;;5087907;28;20034;-77
2022/11/02 13:27:26;;;;;;;9.90;2.45;;;;;;;;;;5093103;28;20039;-77
2022/11/02 13:29:54;;;;;;;7.65;1.77;;;;;;;;;;5082368;28;20040;-77
2022/11/02 13:32:29;;;;;;;10.73;2.55;;;;;;;;;;5082905;28;20832;-77
2022/11/02 13:34:56;;;;;;;8.82;2.58;;;;;;;;;;5083899;28;20040;-77
2022/11/02 13:37:24;;;;;;;20.23;6.38;;;;;;;;;;5105337;28;20027;-77
2022/11/02 13:39:57;;;;;;;18.58;6.18;;;;;;;;;;5097669;28;20040;-77
2022/11/02 13:42:23;;;;;;;17.73;6.07;;;;;;;;;;5093191;28;20028;-77
2022/11/02 13:45:08;;;;;;;15.05;4.18;;;;;;;;;;5088863;28;20471;-77
2022/11/02 13:47:52;;;;;;;13.88;3.13;;;;;;;;;;5090847;28;20042;-77
2022/11/02 13:50:20;;;;;;;8.85;1.92;;;;;;;;;;5079656;28;20365;-77
2022/11/02 13:52:48;;;;;;;5.82;1.75;;;;;;;;;;5082930;28;20036;-77
2022/11/02 13:55:37;;;;;;;13.75;1.98;;;;;;;;;;5093595;28;20577;-77
2022/11/02 13:58:04;;;;;;;7.78;1.92;;;;;;;;;;5095048;28;20126;-77
2022/11/02 14:00:34;;;;;;;12.43;2.83;;;;;;;;;;5083511;28;20035;-77
2022/11/02 14:03:12;;;;;;;8.05;2.08;;;;;;;;;;5083688;28;20484;-77
2022/11/02 14:05:53;;;;;;;7.50;1.83;;;;;;;;;;5080768;28;20499;-77
2022/11/02 14:08:22;;;;;;;11.73;3.10;;;;;;;;;;5085709;28;20040;-77
2022/11/02 14:11:01;;;;;;;14.00;4.82;;;;;;;;;;5073487;28;20035;-77
2022/11/02 14:13:46;;;;;;;19.98;7.05;;;;;;;;;;5084019;28;20023;-77
2022/11/02 14:16:12;;;;;;;16.08;5.30;;;;;;;;;;5100620;28;20023;-77
2022/11/02 14:18:38;;;;;;;12.23;4.32;;;;;;;;;;5106882;28;20028;-77
2022/11/02 14:21:24;;;;;;;13.18;4.15;;;;;;;;;;5086194;28;20040;-77
2022/11/02 14:23:50;;;;;;;10.73;4.10;;;;;;;;;;5098487;28;20039;-77
2022/11/02 14:26:30;;;;;;;8.35;3.30;;;;;;;;;;5083465;28;20052;-77
2022/11/02 14:28:56;;;;;;;14.60;4.30;;;;;;;;;;5080052;28;20028;-77
2022/11/02 14:31:37;;;;;;;12.57;4.45;;;;;;;;;;5094476;28;20032;-77
2022/11/02 14:34:27;;;;;;;10.20;3.20;;;;;;;;;;5104914;28;20068;-77
2022/11/02 14:36:53;;;;;;;11.90;3.55;;;;;;;;;;5081300;28;20312;-77
2022/11/02 14:39:45;;;;;;;13.45;3.92;;;;;;;;;;5089829;28;20063;-77
2022/11/02 14:42:32;;;;;;;10.35;3.17;;;;;;;;;;5080384;28;20424;-77
2022/11/02 14:45:31;;;;;;;12.90;3.80;;;;;;;;;;5080639;28;20024;-77
2022/11/02 14:47:59;;;;;;;13.45;3.40;;;;;;;;;;5058524;28;20118;-77
2022/11/02 14:50:25;;;;;;;10.10;3.15;;;;;;;;;;5088078;28;20032;-77
2022/11/02 14:53:05;;;;;;;12.70;5.00;;;;;;;;;;5076709;28;20032;-77
2022/11/02 14:55:33;;;;;;;12.65;3.60;;;;;;;;;;5072681;28;20474;-77
2022/11/02 14:58:01;;;;;;;13.52;3.38;;;;;;;;;;5076313;28;20742;-77
2022/11/02 15:00:27;;;;;;;13.77;4.10;;;;;;;;;;5099020;28;20028;-77
2022/11/02 15:02:53;;;;;;;11.65;3.75;;;;;;;;;;5081986;28;20029;-77